Time;durP1;ratioP1;P1;durP2;ratioP2;P2;SDS_P1;SDS_P2;PMS_P1;PMS_P2;Temp;Humidity;BMP_temperature;BMP_pressure;BME280_temperature;BME280_humidity;BME280_pressure;Samples;Min_cycle;Max_cycle;Signal;HPM_P1;HPM_P2
2022/05/16 00:00:50;;;;;;;7.47;5.10;;;;;;;12.38;67.83;97953.17;1692039;85;21100;-78
2022/05/16 00:03:17;;;;;;;9.13;5.47;;;;;;;12.34;67.61;97954.20;1692157;85;21056;-78
2022/05/16 00:05:43;;;;;;;6.80;5.60;;;;;;;12.35;68.59;97953.30;1692149;85;21076;-78
2022/05/16 00:08:09;;;;;;;7.12;5.35;;;;;;;12.31;68.87;97945.48;1675593;85;21494;-77
2022/05/16 00:10:36;;;;;;;7.12;5.25;;;;;;;12.28;68.48;97947.34;1664370;86;21013;-77
2022/05/16 00:13:02;;;;;;;8.38;5.40;;;;;;;12.26;69.18;97950.51;1664241;86;21048;-77
2022/05/16 00:15:28;;;;;;;8.85;5.12;;;;;;;12.25;68.36;97943.47;1664187;86;21051;-78
2022/05/16 00:17:55;;;;;;;8.28;5.10;;;;;;;12.27;67.75;97948.28;1664160;85;21028;-78
2022/05/16 00:20:21;;;;;;;7.87;5.25;;;;;;;12.23;67.85;97945.33;1664256;86;21012;-78
2022/05/16 00:22:47;;;;;;;7.75;5.30;;;;;;;12.21;68.71;97943.17;1664116;86;21024;-78
2022/05/16 00:25:17;;;;;;;6.15;5.25;;;;;;;12.19;68.58;97945.03;1664221;85;21000;-78
2022/05/16 00:27:44;;;;;;;5.60;5.00;;;;;;;12.12;68.17;97946.16;1664547;86;21001;-78
2022/05/16 00:30:14;;;;;;;8.63;5.10;;;;;;;12.16;68.06;97945.13;1664190;85;21414;-78
2022/05/16 00:32:41;;;;;;;9.30;5.50;;;;;;;12.18;68.39;97945.96;1664207;85;21096;-78
2022/05/16 00:35:09;;;;;;;6.62;5.15;;;;;;;12.11;69.71;97948.42;1664445;86;21015;-78
2022/05/16 00:37:36;;;;;;;8.98;5.90;;;;;;;12.08;68.18;97945.90;1664126;86;21469;-78
2022/05/16 00:40:03;;;;;;;7.65;5.25;;;;;;;12.06;68.16;97934.45;1664330;86;21066;-78
2022/05/16 00:42:29;;;;;;;8.65;5.12;;;;;;;12.01;69.66;97946.06;1664348;86;21024;-78
2022/05/16 00:44:56;;;;;;;8.28;5.45;;;;;;;11.99;68.95;97943.94;1664278;86;21541;-78
2022/05/16 00:47:22;;;;;;;9.53;5.20;;;;;;;11.92;69.11;97937.58;1663141;85;21025;-78
2022/05/16 00:49:52;;;;;;;12.30;5.58;;;;;;;11.87;69.49;97945.69;1658979;86;21077;-78
2022/05/16 00:52:24;;;;;;;7.50;5.22;;;;;;;11.84;70.56;97939.19;1659307;86;21446;-78
2022/05/16 00:54:56;;;;;;;7.70;5.00;;;;;;;11.78;69.93;97932.30;1673743;86;21035;-78
2022/05/16 00:57:38;;;;;;;8.33;4.97;;;;;;;11.72;70.58;97934.70;1673526;86;21449;-78
2022/05/16 01:00:11;;;;;;;8.68;5.17;;;;;;;11.66;70.08;97934.91;1672709;86;21505;-78
2022/05/16 01:05:27;;;;;;;5.50;4.92;;;;;;;11.57;71.26;97937.44;1643197;87;21107;-78
2022/05/16 01:07:57;;;;;;;5.78;5.12;;;;;;;11.50;70.70;97934.58;1673542;86;21031;-78
2022/05/16 01:10:23;;;;;;;9.93;5.10;;;;;;;11.45;71.11;97935.20;1673728;86;21020;-78
2022/05/16 01:12:52;;;;;;;7.62;5.10;;;;;;;11.40;71.42;97928.73;1673585;84;21668;-78
2022/05/16 01:15:33;;;;;;;7.20;4.78;;;;;;;11.40;71.45;97923.42;1673724;85;21059;-78
2022/05/16 01:18:00;;;;;;;6.78;5.37;;;;;;;11.39;71.30;97921.70;1673659;86;21031;-78
2022/05/16 01:20:36;;;;;;;6.42;4.95;;;;;;;11.38;70.64;97919.09;1673616;85;21469;-78
2022/05/16 01:23:02;;;;;;;5.37;4.80;;;;;;;11.37;71.04;97911.58;1656155;86;21023;-78
2022/05/16 01:25:29;;;;;;;5.55;4.97;;;;;;;11.34;72.39;97922.31;1673658;86;21481;-78
2022/05/16 01:27:59;;;;;;;8.03;5.47;;;;;;;11.33;70.92;97913.48;1673591;85;21114;-78
2022/05/16 01:30:29;;;;;;;9.73;5.25;;;;;;;11.35;71.08;97918.73;1673713;86;21067;-78
2022/05/16 01:32:55;;;;;;;7.62;5.40;;;;;;;11.38;70.46;97913.78;1673674;86;21083;-78
2022/05/16 01:35:25;;;;;;;8.50;5.33;;;;;;;11.35;70.91;97913.42;1673620;86;21035;-78
2022/05/16 01:40:37;;;;;;;8.08;5.10;;;;;;;11.30;71.16;97911.39;1673800;86;21048;-78
2022/05/16 01:43:06;;;;;;;9.00;6.33;;;;;;;11.21;71.51;97909.45;1673798;86;21004;-78
2022/05/16 01:45:34;;;;;;;5.12;4.58;;;;;;;11.17;71.31;97913.12;1673840;86;21012;-78
2022/05/16 01:48:00;;;;;;;6.08;5.17;;;;;;;11.16;70.53;97911.39;1681239;83;21225;-78
2022/05/16 01:50:27;;;;;;;5.53;4.90;;;;;;;11.14;71.78;97912.36;1695385;83;21495;-78
2022/05/16 01:52:53;;;;;;;5.53;4.67;;;;;;;11.13;71.16;97911.48;1695671;84;21004;-77
2022/05/16 01:55:19;;;;;;;5.33;4.70;;;;;;;11.10;71.21;97915.58;1695538;85;21060;-77
2022/05/16 01:57:46;;;;;;;8.53;4.70;;;;;;;11.04;71.07;97916.64;1664325;86;21079;-78
2022/05/16 02:00:15;;;;;;;7.65;5.10;;;;;;;11.03;71.77;97908.28;1664179;86;21037;-78
2022/05/16 02:02:42;;;;;;;6.50;4.78;;;;;;;11.07;71.54;97913.02;1664392;86;21493;-78
2022/05/16 02:05:11;;;;;;;5.87;4.60;;;;;;;11.04;72.54;97909.16;1664364;86;21033;-78
2022/05/16 02:07:38;;;;;;;8.53;5.50;;;;;;;10.99;72.14;97909.73;1664259;86;21037;-78
2022/05/16 02:10:06;;;;;;;6.87;5.58;;;;;;;10.99;72.38;97910.63;1664329;86;21028;-79
2022/05/16 02:12:34;;;;;;;6.08;4.90;;;;;;;10.96;71.72;97912.91;1664476;85;21445;-78
2022/05/16 02:15:02;;;;;;;5.50;4.67;;;;;;;10.96;71.75;97911.59;1664221;86;21515;-79
2022/05/16 02:17:28;;;;;;;7.60;4.92;;;;;;;10.98;71.94;97911.98;1664256;85;20976;-79
2022/05/16 02:19:55;;;;;;;8.78;5.00;;;;;;;11.02;71.36;97913.63;1664365;86;21012;-79
2022/05/16 02:25:07;;;;;;;8.90;4.60;;;;;;;11.02;70.96;97908.33;1664432;86;21430;-78
2022/05/16 02:27:34;;;;;;;7.55;5.33;;;;;;;10.96;71.01;97913.36;1664312;86;21060;-78
2022/05/16 02:30:00;;;;;;;6.50;4.70;;;;;;;10.92;70.96;97909.10;1664253;86;21072;-78
2022/05/16 02:32:27;;;;;;;5.80;5.00;;;;;;;10.89;71.46;97902.11;1664406;85;21079;-78
2022/05/16 02:34:53;;;;;;;8.28;4.75;;;;;;;10.91;71.49;97908.22;1664407;86;21056;-78
2022/05/16 02:37:20;;;;;;;5.62;4.62;;;;;;;10.90;71.51;97902.52;1664015;85;21470;-79
2022/05/16 02:39:46;;;;;;;6.70;5.03;;;;;;;10.90;71.25;97910.47;1664434;86;21040;-78
2022/05/16 02:42:14;;;;;;;6.78;5.10;;;;;;;10.93;72.68;97905.53;1664171;86;21084;-78
2022/05/16 02:44:41;;;;;;;6.33;4.95;;;;;;;10.92;71.41;97907.30;1664195;86;21136;-78
2022/05/16 02:47:17;;;;;;;8.10;4.80;;;;;;;10.87;71.32;97915.02;1664161;86;21023;-78
2022/05/16 02:49:44;;;;;;;5.95;5.25;;;;;;;10.76;71.51;97912.70;1664149;86;21047;-79
2022/05/16 02:52:11;;;;;;;10.60;5.17;;;;;;;10.70;71.89;97912.42;1664286;86;21075;-78
2022/05/16 02:54:37;;;;;;;8.03;5.97;;;;;;;10.65;71.83;97911.25;1664375;86;21413;-78
2022/05/16 02:57:06;;;;;;;7.95;5.25;;;;;;;10.65;72.59;97915.23;1664225;86;21095;-78
2022/05/16 02:59:35;;;;;;;9.00;4.85;;;;;;;10.69;72.15;97918.64;1664299;86;21074;-78
2022/05/16 03:02:04;;;;;;;7.15;5.30;;;;;;;10.71;73.34;97923.91;1664284;86;21076;-78
2022/05/16 03:04:31;;;;;;;8.53;4.78;;;;;;;10.68;72.61;97920.41;1664191;86;21481;-78
2022/05/16 03:06:58;;;;;;;5.50;4.80;;;;;;;10.66;71.94;97916.95;1664229;85;21461;-78
2022/05/16 03:09:26;;;;;;;9.00;5.28;;;;;;;10.65;72.35;97920.53;1664231;85;21008;-79
2022/05/16 03:11:53;;;;;;;9.03;4.95;;;;;;;10.65;72.07;97920.97;1664125;86;21016;-78
2022/05/16 03:14:20;;;;;;;11.10;5.53;;;;;;;10.66;71.93;97924.91;1664350;86;21008;-78
2022/05/16 03:16:47;;;;;;;9.85;5.25;;;;;;;10.61;71.92;97926.83;1664249;85;21048;-78
2022/05/16 03:19:14;;;;;;;7.30;5.33;;;;;;;10.59;72.12;97924.67;1664183;86;21460;-78
2022/05/16 03:21:42;;;;;;;6.53;5.35;;;;;;;10.60;72.52;97930.85;1664339;85;21067;-78
2022/05/16 03:24:08;;;;;;;6.05;4.60;;;;;;;10.64;72.54;97928.52;1664118;86;21412;-78
2022/05/16 03:26:36;;;;;;;7.85;5.40;;;;;;;10.65;72.69;97926.27;1664222;86;21028;-78
2022/05/16 03:29:06;;;;;;;7.05;5.35;;;;;;;10.64;72.50;97929.84;1664217;86;21013;-78
2022/05/16 03:31:33;;;;;;;6.35;5.10;;;;;;;10.64;72.67;97922.78;1664242;85;21000;-79
2022/05/16 03:33:59;;;;;;;8.38;5.72;;;;;;;10.62;73.14;97928.56;1664376;86;21406;-78
2022/05/16 03:36:25;;;;;;;6.55;5.00;;;;;;;10.60;72.62;97919.80;1664451;86;21095;-78
2022/05/16 03:41:36;;;;;;;6.78;4.85;;;;;;;10.69;72.67;97933.22;1664414;86;21068;-78
2022/05/16 03:44:03;;;;;;;8.03;5.37;;;;;;;10.76;72.35;97932.58;1664371;86;21437;-78
2022/05/16 03:46:29;;;;;;;8.50;5.03;;;;;;;10.80;72.31;97932.42;1664262;86;21040;-78
2022/05/16 03:48:56;;;;;;;7.65;5.50;;;;;;;10.86;72.06;97936.66;1661691;86;21116;-78
2022/05/16 03:51:22;;;;;;;6.50;4.58;;;;;;;10.87;71.86;97937.55;1659255;86;21068;-78
2022/05/16 03:53:49;;;;;;;17.37;5.72;;;;;;;10.89;71.96;97941.88;1659176;85;21116;-78
2022/05/16 03:56:24;;;;;;;6.17;4.92;;;;;;;10.91;71.83;97934.73;1659197;86;21028;-78
2022/05/16 03:58:52;;;;;;;9.45;5.00;;;;;;;10.94;71.83;97941.72;1659284;85;21107;-78
2022/05/16 04:01:19;;;;;;;7.28;5.10;;;;;;;10.96;72.07;97949.16;1659092;85;21092;-78
2022/05/16 04:03:45;;;;;;;9.63;4.97;;;;;;;10.95;71.75;97945.66;1659299;86;21092;-78
2022/05/16 04:06:15;;;;;;;9.98;5.22;;;;;;;10.98;71.65;97941.16;1659158;86;21040;-78
2022/05/16 04:08:42;;;;;;;9.43;5.45;;;;;;;11.03;71.52;97946.73;1659250;86;21121;-78
2022/05/16 04:11:10;;;;;;;6.85;5.50;;;;;;;11.16;71.49;97947.64;1659219;85;21469;-78
2022/05/16 04:13:37;;;;;;;6.05;4.80;;;;;;;11.27;71.25;97943.32;1659146;86;21438;-78
2022/05/16 04:16:04;;;;;;;6.05;4.95;;;;;;;11.37;71.18;97943.42;1659069;86;21092;-78
2022/05/16 04:18:32;;;;;;;8.88;4.70;;;;;;;11.47;70.94;97946.16;1659113;86;21091;-78
2022/05/16 04:20:59;;;;;;;6.40;4.87;;;;;;;11.59;70.79;97955.49;1659051;86;21037;-78
2022/05/16 04:23:25;;;;;;;8.18;5.10;;;;;;;11.69;70.58;97960.05;1659172;86;21056;-78
2022/05/16 04:25:51;;;;;;;7.15;5.03;;;;;;;11.75;70.47;97959.82;1659163;85;21501;-78
2022/05/16 04:28:18;;;;;;;6.62;4.55;;;;;;;11.85;70.36;97955.07;1659178;86;21049;-78
2022/05/16 04:30:44;;;;;;;5.78;4.78;;;;;;;11.94;70.02;97959.17;1659268;86;21422;-78
2022/05/16 04:33:10;;;;;;;7.30;4.95;;;;;;;12.00;69.90;97965.59;1659173;86;21107;-78
2022/05/16 04:35:37;;;;;;;10.48;5.53;;;;;;;12.10;69.86;97963.52;1658875;86;21509;-78
2022/05/16 04:38:04;;;;;;;11.53;5.37;;;;;;;12.17;69.40;97963.28;1659141;85;21049;-78
2022/05/16 04:40:31;;;;;;;8.03;5.25;;;;;;;12.23;69.65;97964.38;1659209;86;21016;-78
2022/05/16 04:42:58;;;;;;;6.47;4.97;;;;;;;12.33;69.43;97961.78;1659165;86;21454;-79
2022/05/16 04:45:27;;;;;;;9.95;5.53;;;;;;;12.41;69.22;97964.14;1659165;86;21073;-78
2022/05/16 04:48:00;;;;;;;9.03;5.92;;;;;;;12.49;69.14;97962.08;1659155;86;21129;-78
2022/05/16 04:50:35;;;;;;;8.48;5.67;;;;;;;12.57;68.88;97970.23;1627801;86;22671;-79
2022/05/16 04:53:00;;;;;;;9.40;5.42;;;;;;;12.66;68.80;97967.20;1658553;86;21084;-78
2022/05/16 04:55:28;;;;;;;6.62;5.30;;;;;;;12.75;68.60;97965.52;1659018;85;21107;-79
2022/05/16 04:57:57;;;;;;;8.70;5.67;;;;;;;12.85;68.25;97963.38;1659066;86;21454;-79
2022/05/16 05:00:25;;;;;;;12.18;5.95;;;;;;;12.93;67.99;97961.29;1659083;86;20969;-79
2022/05/16 05:02:52;;;;;;;11.30;6.47;;;;;;;13.01;67.75;97963.64;1659023;85;21084;-78
2022/05/16 05:05:19;;;;;;;7.70;5.85;;;;;;;13.10;67.58;97965.05;1659163;85;20973;-78
2022/05/16 05:07:46;;;;;;;10.93;5.85;;;;;;;13.17;67.26;97966.52;1659257;85;21123;-79
2022/05/16 05:15:47;;;;;;;9.43;5.47;;;;;;;13.33;66.87;97964.11;1659283;86;20993;-77
2022/05/16 05:18:13;;;;;;;8.55;6.10;;;;;;;13.43;66.48;97969.93;1659176;85;21080;-77
2022/05/16 05:20:40;;;;;;;10.08;5.58;;;;;;;13.51;66.16;97965.64;1659356;86;21081;-77
2022/05/16 05:23:06;;;;;;;7.95;5.40;;;;;;;13.66;66.39;97970.77;1659345;86;21521;-77
2022/05/16 05:25:33;;;;;;;7.67;5.35;;;;;;;13.76;66.36;97973.05;1659153;86;21129;-77
2022/05/16 05:28:02;;;;;;;9.65;5.85;;;;;;;13.84;65.93;97970.92;1659147;85;21044;-77
2022/05/16 05:30:30;;;;;;;10.88;5.42;;;;;;;13.97;65.56;97973.91;1659153;86;21106;-77
2022/05/16 05:32:57;;;;;;;11.63;5.70;;;;;;;14.05;65.25;97971.79;1659148;85;21048;-77
2022/05/16 05:35:24;;;;;;;8.38;5.72;;;;;;;14.18;65.38;97968.56;1659143;85;21036;-77
2022/05/16 05:37:54;;;;;;;9.30;5.00;;;;;;;14.24;65.15;97968.28;1659167;86;21068;-78
2022/05/16 05:40:19;;;;;;;7.72;5.47;;;;;;;14.30;65.06;97969.36;1658800;86;21048;-78
2022/05/16 05:42:46;;;;;;;7.97;5.20;;;;;;;14.37;65.11;97965.46;1659292;86;21496;-78
2022/05/16 05:45:12;;;;;;;11.48;5.17;;;;;;;14.48;64.75;97964.10;1659080;86;21040;-78
2022/05/16 05:47:39;;;;;;;7.40;4.72;;;;;;;14.61;64.84;97961.73;1659243;85;21151;-79
2022/05/16 05:50:07;;;;;;;8.93;5.30;;;;;;;14.69;64.26;97958.23;1662472;86;21093;-78
2022/05/16 05:52:34;;;;;;;7.83;5.22;;;;;;;14.80;63.72;97956.89;1664047;85;21044;-78
2022/05/16 05:55:00;;;;;;;10.35;5.58;;;;;;;14.83;63.39;97954.97;1664236;85;21063;-77
2022/05/16 05:57:27;;;;;;;8.05;5.37;;;;;;;14.87;63.35;97948.52;1664234;86;21008;-78
2022/05/16 05:59:55;;;;;;;53.68;32.70;;;;;;;14.92;63.16;97949.66;1664121;85;21044;-79
2022/05/16 06:02:21;;;;;;;7.58;5.58;;;;;;;14.96;62.79;97947.70;1664133;86;21020;-79
2022/05/16 06:04:48;;;;;;;11.35;5.10;;;;;;;14.96;62.49;97942.36;1664183;86;21465;-78
2022/05/16 06:07:15;;;;;;;7.05;4.97;;;;;;;15.02;62.55;97940.72;1664203;85;20992;-78
2022/05/16 06:09:41;;;;;;;7.87;5.50;;;;;;;15.11;62.36;97946.10;1664153;86;21425;-78
2022/05/16 06:12:10;;;;;;;9.40;4.97;;;;;;;15.20;62.02;97942.95;1664179;86;21032;-78
2022/05/16 06:14:37;;;;;;;10.75;5.50;;;;;;;15.24;62.10;97935.68;1664118;86;21083;-78
2022/05/16 06:17:04;;;;;;;9.70;5.60;;;;;;;15.35;61.88;97941.80;1664175;86;21035;-78
2022/05/16 06:19:31;;;;;;;8.35;5.20;;;;;;;15.47;61.67;97944.32;1664125;86;21079;-78
2022/05/16 06:21:57;;;;;;;7.33;4.83;;;;;;;15.57;61.80;97945.58;1664247;86;21040;-77
2022/05/16 06:27:08;;;;;;;6.40;4.65;;;;;;;15.75;61.70;97945.13;1664319;86;21036;-78
2022/05/16 06:29:35;;;;;;;4.72;4.22;;;;;;;15.88;61.43;97943.14;1664331;85;21028;-78
2022/05/16 06:32:02;;;;;;;6.25;4.40;;;;;;;15.96;60.90;97943.65;1664382;85;21012;-78
2022/05/16 06:34:28;;;;;;;5.03;3.58;;;;;;;16.04;60.65;97937.44;1664322;86;21044;-78
2022/05/16 06:36:55;;;;;;;5.67;4.03;;;;;;;16.16;60.24;97927.91;1664234;86;21083;-78
2022/05/16 06:39:21;;;;;;;5.03;4.05;;;;;;;16.24;60.15;97928.83;1664154;86;21076;-78
2022/05/16 06:41:49;;;;;;;8.13;4.00;;;;;;;16.32;59.56;97927.91;1664299;86;20989;-78
2022/05/16 06:44:19;;;;;;;6.92;3.58;;;;;;;16.42;58.95;97930.97;1664425;86;21072;-78
2022/05/16 06:46:45;;;;;;;8.68;4.15;;;;;;;16.49;58.69;97924.31;1664422;86;21063;-77
2022/05/16 06:49:12;;;;;;;5.97;4.62;;;;;;;16.61;58.71;97921.44;1663280;85;21060;-78
2022/05/16 06:51:39;;;;;;;19.75;13.08;;;;;;;16.72;58.63;97918.63;1659332;86;21088;-79
2022/05/16 06:54:06;;;;;;;6.15;4.42;;;;;;;16.82;58.28;97919.84;1659344;86;21470;-78
2022/05/16 06:56:33;;;;;;;5.15;4.00;;;;;;;16.95;57.66;97918.70;1659119;86;21068;-78
2022/05/16 06:58:59;;;;;;;6.03;4.15;;;;;;;17.09;57.89;97917.05;1659370;86;21120;-78
2022/05/16 07:01:26;;;;;;;7.00;3.90;;;;;;;17.22;57.51;97911.84;1659402;86;21068;-79
2022/05/16 07:03:52;;;;;;;7.33;4.35;;;;;;;17.34;57.32;97908.46;1659257;86;21052;-78
2022/05/16 07:06:18;;;;;;;7.65;4.92;;;;;;;17.47;57.13;97908.59;1659205;86;21417;-78
2022/05/16 07:08:45;;;;;;;11.68;5.35;;;;;;;17.60;56.91;97906.05;1659246;86;21021;-78
2022/05/16 07:11:11;;;;;;;7.00;4.55;;;;;;;17.72;56.40;97902.27;1659306;86;21087;-78
2022/05/16 07:13:37;;;;;;;10.23;4.95;;;;;;;17.88;55.96;97907.52;1659100;85;21469;-78
2022/05/16 07:16:04;;;;;;;9.58;6.10;;;;;;;18.03;55.70;97899.88;1659259;86;21049;-78
2022/05/16 07:18:30;;;;;;;8.03;5.15;;;;;;;18.18;55.43;97897.23;1659321;86;21028;-79
2022/05/16 07:20:59;;;;;;;10.48;5.60;;;;;;;18.33;55.06;97894.08;1659356;86;21123;-79
2022/05/16 07:23:26;;;;;;;7.53;5.47;;;;;;;18.50;55.21;97898.84;1659159;86;21577;-78
2022/05/16 07:28:35;;;;;;;9.00;4.90;;;;;;;18.81;54.01;97899.57;1619172;86;21474;-79
2022/05/16 07:31:02;;;;;;;10.20;5.42;;;;;;;18.95;54.39;97898.19;1659136;86;21004;-78
2022/05/16 07:33:28;;;;;;;13.55;5.58;;;;;;;19.08;53.33;97899.61;1659343;86;21040;-79
2022/05/16 07:35:55;;;;;;;8.15;5.80;;;;;;;19.25;53.12;97891.77;1659354;86;21521;-79
2022/05/16 07:38:25;;;;;;;11.48;5.42;;;;;;;19.41;52.24;97896.58;1659293;86;21116;-79
2022/05/16 07:40:53;;;;;;;11.75;5.00;;;;;;;19.55;53.09;97899.19;1659409;86;21438;-79
2022/05/16 07:43:20;;;;;;;13.80;5.08;;;;;;;19.75;53.19;97897.84;1659176;86;21445;-79
2022/05/16 07:45:47;;;;;;;11.48;5.72;;;;;;;19.92;53.03;97893.11;1659098;86;21056;-79
2022/05/16 07:48:14;;;;;;;8.45;4.62;;;;;;;20.05;52.55;97896.70;1659083;85;21024;-76
2022/05/16 07:50:41;;;;;;;11.28;4.35;;;;;;;20.22;52.02;97890.59;1661673;85;21027;-79
2022/05/16 07:53:12;;;;;;;6.78;4.25;;;;;;;20.31;51.75;97894.48;1663016;86;21068;-79
2022/05/16 07:55:41;;;;;;;9.65;4.60;;;;;;;20.43;51.65;97896.28;1664143;86;20992;-79
2022/05/16 07:58:08;;;;;;;9.60;4.05;;;;;;;20.57;51.90;97895.77;1664030;85;21079;-79
2022/05/16 08:00:34;;;;;;;10.18;4.12;;;;;;;20.67;50.92;97883.83;1664185;86;21500;-76
2022/05/16 08:03:02;;;;;;;6.72;3.80;;;;;;;20.75;51.41;97881.95;1664272;86;21068;-77
2022/05/16 08:05:28;;;;;;;19.30;4.20;;;;;;;20.86;51.63;97876.66;1664187;86;21016;-76
2022/05/16 08:10:41;;;;;;;9.58;4.40;;;;;;;21.03;51.07;97878.58;1664272;86;21099;-79
2022/05/16 08:13:10;;;;;;;13.53;5.00;;;;;;;21.09;51.10;97880.80;1664218;85;21012;-76
2022/05/16 08:15:39;;;;;;;8.50;4.90;;;;;;;21.10;50.37;97882.55;1664240;85;21091;-77
2022/05/16 08:18:06;;;;;;;10.20;4.60;;;;;;;21.16;50.63;97876.69;1664186;85;21068;-78
2022/05/16 08:20:35;;;;;;;7.00;5.05;;;;;;;21.22;50.25;97874.87;1664116;85;21076;-78
2022/05/16 08:23:01;;;;;;;15.72;4.97;;;;;;;21.27;50.38;97879.93;1664320;86;21052;-78
2022/05/16 08:25:28;;;;;;;13.65;5.28;;;;;;;21.32;49.95;97872.83;1664240;86;21066;-78
2022/05/16 08:27:54;;;;;;;8.53;4.67;;;;;;;21.37;49.78;97874.68;1663973;86;21052;-78
2022/05/16 08:30:22;;;;;;;15.32;4.83;;;;;;;21.47;49.88;97881.09;1664317;86;21035;-78
2022/05/16 08:32:50;;;;;;;19.17;10.88;;;;;;;21.53;49.48;97879.77;1664179;86;21043;-78
2022/05/16 08:35:18;;;;;;;15.78;7.28;;;;;;;21.59;49.51;97869.01;1664286;86;21058;-78
2022/05/16 08:40:40;;;;;;;11.18;5.03;;;;;;;21.62;48.01;97875.49;1664247;86;21033;-78
2022/05/16 08:43:11;;;;;;;12.55;4.45;;;;;;;21.67;48.23;97876.50;1653065;86;21064;-78
2022/05/16 08:45:41;;;;;;;11.63;4.95;;;;;;;21.70;48.06;97880.30;1647342;86;21176;-78
2022/05/16 08:48:10;;;;;;;7.10;3.70;;;;;;;21.70;47.38;97871.72;1664090;86;21060;-78
2022/05/16 08:50:40;;;;;;;8.03;3.80;;;;;;;21.70;46.92;97875.77;1664190;86;21146;-77
2022/05/16 08:53:29;;;;;;;5.95;2.95;;;;;;;21.73;45.72;97873.35;1664280;86;21051;-77
2022/05/16 08:56:01;;;;;;;4.78;2.65;;;;;;;21.73;45.35;97880.09;1664008;86;21381;-78
2022/05/16 08:58:33;;;;;;;8.83;3.17;;;;;;;21.75;44.43;97871.38;1664154;86;21072;-77
2022/05/16 09:01:03;;;;;;;6.62;3.42;;;;;;;21.81;44.30;97873.63;1663982;86;21064;-78
2022/05/16 09:03:50;;;;;;;4.65;2.95;;;;;;;21.91;43.96;97875.61;1664229;86;21093;-78
2022/05/16 09:06:26;;;;;;;6.03;3.58;;;;;;;21.98;43.59;97876.34;1664359;86;21040;-78
2022/05/16 09:08:58;;;;;;;5.95;3.25;;;;;;;22.05;39.00;97873.16;1664082;86;21465;-77
2022/05/16 09:11:31;;;;;;;5.47;3.30;;;;;;;22.13;39.84;97871.56;1664134;86;21477;-77
2022/05/16 09:14:04;;;;;;;5.25;2.90;;;;;;;22.26;39.84;97872.79;1664122;86;21527;-78
2022/05/16 09:16:46;;;;;;;5.40;3.00;;;;;;;22.41;40.80;97872.54;1664365;86;21587;-77
2022/05/16 09:19:37;;;;;;;8.65;3.12;;;;;;;22.52;39.67;97871.68;1664249;86;21477;-77
2022/05/16 09:22:13;;;;;;;7.55;2.98;;;;;;;22.55;38.25;97869.61;1657586;86;21052;-78
2022/05/16 09:24:55;;;;;;;6.75;3.20;;;;;;;22.58;38.65;97863.62;1664241;86;21080;-78
2022/05/16 09:30:16;;;;;;;11.55;3.05;;;;;;;23.03;39.05;97865.33;1664166;86;21065;-78
2022/05/16 09:32:53;;;;;;;6.78;3.27;;;;;;;23.03;39.05;97865.33;1664325;86;21018;-78
2022/05/16 09:35:26;;;;;;;5.17;3.40;;;;;;;23.12;39.77;97851.56;1664207;86;21072;-78
2022/05/16 09:37:56;;;;;;;7.75;3.10;;;;;;;23.27;40.06;97848.91;1663160;86;21468;-78
2022/05/16 09:40:34;;;;;;;4.47;3.02;;;;;;;23.42;39.18;97858.09;1664169;86;21473;-79
2022/05/16 09:43:21;;;;;;;3.70;2.87;;;;;;;23.54;40.06;97845.38;1664099;86;21039;-79
2022/05/16 09:46:03;;;;;;;6.03;2.80;;;;;;;23.75;39.79;97848.56;1664169;86;21111;-78
2022/05/16 09:48:29;;;;;;;4.75;2.80;;;;;;;23.89;38.90;97862.23;1664143;86;21044;-78
2022/05/16 09:51:01;;;;;;;8.58;3.52;;;;;;;23.79;37.99;97857.63;1664189;86;21008;-78
2022/05/16 09:53:31;;;;;;;4.40;3.20;;;;;;;23.69;38.38;97847.23;1664111;86;21004;-79
2022/05/16 09:56:09;;;;;;;6.53;3.10;;;;;;;23.59;38.09;97849.89;1664040;86;21055;-78
2022/05/16 09:59:04;;;;;;;6.00;2.55;;;;;;;23.54;37.91;97839.45;1662538;86;21624;-78
2022/05/16 10:01:38;;;;;;;5.03;2.92;;;;;;;23.53;38.58;97837.75;1664298;86;21477;-78
2022/05/16 10:04:12;;;;;;;4.72;2.72;;;;;;;23.59;39.01;97839.08;1664309;86;21107;-78
2022/05/16 10:06:43;;;;;;;4.50;2.65;;;;;;;23.67;39.07;97823.02;1664350;86;21029;-78
2022/05/16 10:09:15;;;;;;;5.40;2.98;;;;;;;23.85;39.54;97835.47;1664350;86;21048;-78
2022/05/16 10:11:45;;;;;;;3.77;2.50;;;;;;;24.04;37.89;97833.83;1662325;86;21044;-78
2022/05/16 10:14:12;;;;;;;4.50;2.77;;;;;;;24.24;38.57;97833.45;1663776;86;21764;-78
2022/05/16 10:16:41;;;;;;;7.28;2.80;;;;;;;24.55;38.04;97822.22;1664480;86;21020;-78
2022/05/16 10:19:11;;;;;;;7.28;2.67;;;;;;;24.72;38.02;97813.91;1664257;86;21123;-79
2022/05/16 10:22:01;;;;;;;4.15;2.33;;;;;;;24.86;38.63;97815.38;1664381;86;21066;-78
2022/05/16 10:24:31;;;;;;;3.90;2.65;;;;;;;24.78;38.37;97818.77;1664311;86;21532;-78
2022/05/16 10:27:00;;;;;;;5.25;2.60;;;;;;;24.72;38.13;97816.62;1664230;86;21052;-79
2022/05/16 10:29:30;;;;;;;7.62;3.20;;;;;;;24.63;35.49;97816.97;1664278;86;21047;-78
2022/05/16 10:34:55;;;;;;;3.47;2.40;;;;;;;24.56;35.85;97806.31;1664351;86;21040;-78
2022/05/16 10:37:23;;;;;;;5.25;2.50;;;;;;;24.65;36.68;97809.55;1664224;86;21076;-78
2022/05/16 10:39:59;;;;;;;4.33;2.27;;;;;;;24.86;33.90;97809.95;1664169;85;21462;-79
2022/05/16 10:42:29;;;;;;;4.42;2.33;;;;;;;25.75;33.16;97797.72;1663524;86;21079;-78
2022/05/16 10:45:09;;;;;;;5.85;2.20;;;;;;;26.89;34.11;97795.73;1664179;86;21067;-78
2022/05/16 10:47:54;;;;;;;3.47;2.08;;;;;;;26.95;29.51;97787.51;1664087;86;21438;-79
2022/05/16 10:50:46;;;;;;;4.37;2.27;;;;;;;26.91;29.32;97789.66;1664392;86;21488;-78
2022/05/16 10:53:25;;;;;;;4.55;2.25;;;;;;;27.75;31.32;97795.30;1664203;86;21044;-78
2022/05/16 10:56:01;;;;;;;4.50;2.25;;;;;;;28.29;30.21;97783.36;1664197;86;21099;-79
2022/05/16 10:58:58;;;;;;;3.83;2.00;;;;;;;27.96;30.38;97785.89;1663338;85;21529;-78
2022/05/16 11:01:31;;;;;;;5.72;2.40;;;;;;;27.54;28.94;97786.45;1664098;85;21016;-78
2022/05/16 11:04:04;;;;;;;3.55;2.50;;;;;;;28.19;29.38;97778.02;1664122;86;21107;-79
2022/05/16 11:06:49;;;;;;;3.75;2.47;;;;;;;29.05;26.34;97777.08;1664399;86;21015;-78
2022/05/16 11:09:31;;;;;;;3.92;2.17;;;;;;;30.00;27.22;97772.92;1664049;86;21079;-78
2022/05/16 11:12:08;;;;;;;5.10;2.17;;;;;;;30.37;26.36;97781.52;1664362;86;21031;-78
2022/05/16 11:14:47;;;;;;;4.37;2.22;;;;;;;30.42;25.96;97781.84;1664220;86;21064;-78
2022/05/16 11:17:22;;;;;;;2.58;2.17;;;;;;;30.98;25.92;97768.20;1664381;86;21508;-78
2022/05/16 11:19:58;;;;;;;4.20;2.22;;;;;;;31.99;26.42;97768.52;1664507;86;21044;-79
2022/05/16 11:22:30;;;;;;;3.50;2.05;;;;;;;32.47;26.80;97770.02;1664227;86;21076;-79
2022/05/16 11:25:19;;;;;;;4.00;2.25;;;;;;;33.18;23.37;97764.37;1664509;86;21536;-79
2022/05/16 11:27:58;;;;;;;4.00;2.15;;;;;;;32.97;25.32;97756.44;1664073;86;21024;-79
2022/05/16 11:30:48;;;;;;;2.98;2.08;;;;;;;32.74;25.25;97754.72;1656910;86;21059;-79
2022/05/16 11:33:24;;;;;;;5.10;2.70;;;;;;;32.39;21.65;97750.38;1664171;86;21470;-79
2022/05/16 11:35:54;;;;;;;2.55;2.22;;;;;;;32.81;23.81;97746.56;1664292;86;21064;-78
2022/05/16 11:38:26;;;;;;;4.42;2.12;;;;;;;32.90;23.06;97739.04;1663641;86;21054;-79
2022/05/16 11:41:24;;;;;;;4.67;2.40;;;;;;;32.70;23.41;97742.97;1664421;86;21028;-79
2022/05/16 11:43:53;;;;;;;5.03;2.35;;;;;;;32.18;24.80;97741.06;1664146;86;21460;-79
2022/05/16 11:46:39;;;;;;;5.33;2.27;;;;;;;31.91;25.16;97737.95;1664131;86;21020;-79
2022/05/16 11:49:21;;;;;;;3.90;2.35;;;;;;;32.78;24.66;97735.96;1664309;86;21015;-79
2022/05/16 11:51:59;;;;;;;5.67;2.70;;;;;;;33.53;22.76;97738.89;1664034;86;21017;-79
2022/05/16 11:54:35;;;;;;;6.78;2.35;;;;;;;33.25;21.17;97740.55;1660996;85;21690;-79
2022/05/16 12:02:47;;;;;;;4.33;2.67;;;;;;;34.72;22.59;97733.41;1664213;86;21079;-80
2022/05/16 12:05:23;;;;;;;5.17;2.40;;;;;;;35.53;22.20;97722.46;1664219;86;21068;-80
2022/05/16 12:08:01;;;;;;;4.67;2.37;;;;;;;35.53;22.20;97722.46;1664234;86;21024;-78
2022/05/16 12:10:30;;;;;;;4.17;2.80;;;;;;;35.23;20.75;97733.92;1664141;86;21079;-78
2022/05/16 12:13:18;;;;;;;7.03;2.65;;;;;;;34.48;22.10;97734.27;1664216;86;21079;-78
2022/05/16 12:15:49;;;;;;;4.33;2.70;;;;;;;34.19;22.26;97728.53;1664081;86;21308;-78
2022/05/16 12:18:35;;;;;;;6.37;2.37;;;;;;;33.94;22.21;97724.38;1664122;86;21072;-78
2022/05/16 12:21:11;;;;;;;9.60;3.12;;;;;;;33.97;22.81;97720.38;1664427;86;21063;-78
2022/05/16 12:23:50;;;;;;;3.95;2.67;;;;;;;34.19;23.19;97715.64;1664323;86;21059;-78